Luis Adriao — CULM2 — position and weather

sailwx.info

Track history (hours):
 
Tides and Currents Weather Stations Pressure Air Temp Water Temp Dewpoint Dewpoint Depression Visibility Wind Speed Wind Dir Waves Ship Positions

Luis Adriao

Last reported at 2017-Dec-11 09:59 UTC. Time now 2017-Dec-13 17:05 UTC.
Position N 38°26' W 009°07'.

Length 22 m.

Type: Fishing. MMSI: 263500262.

Date/timePositionNaut miles runAvg speedWind from/ knotsBaromVisibWave heightAir tempDewpointWater temp
2017-Dec-11 09:59N 38°26' W 009°07'  
2017-Dec-07 11:11N 38°26' W 009°07'0 0.0
2017-Dec-07 11:00N 38°26' W 009°07'2 4.1
2017-Dec-07 10:30N 38°26' W 009°04'3 6.9
2017-Dec-07 10:00N 38°25' W 009°00'4 8.5
2017-Dec-07 09:31N 38°24' W 008°55'8 4.2
2017-Dec-07 07:38N 38°17' W 008°50'1 8.6
2017-Dec-07 07:30N 38°18' W 008°51'1 2.0
2017-Dec-07 07:00N 38°19' W 008°51'3 6.8
2017-Dec-07 06:31N 38°20' W 008°54'5 8.9
2017-Dec-07 06:00N 38°23' W 008°59'4 8.9
2017-Dec-07 05:30N 38°25' W 009°04'3 5.1
2017-Dec-07 05:01N 38°26' W 009°07'  
2017-Dec-04 10:14N 38°20' W 008°51'0 0.3
2017-Dec-04 10:00N 38°21' W 008°51'0 0.3
2017-Dec-04 09:29N 38°21' W 008°51'0 0.3
2017-Dec-04 09:00N 38°21' W 008°51'0 0.3
2017-Dec-04 08:26N 38°21' W 008°50'0 0.3
2017-Dec-04 08:00N 38°20' W 008°50'0 0.3
2017-Dec-04 07:30N 38°20' W 008°50'0 0.7
2017-Dec-04 07:00N 38°21' W 008°50'0 0.9
2017-Dec-04 06:30N 38°21' W 008°51'3 6.3
2017-Dec-04 06:00N 38°23' W 008°53'4 7.4
2017-Dec-04 05:31N 38°25' W 008°57'4 7.8
2017-Dec-04 05:00N 38°26' W 009°02'4 7.0
2017-Dec-04 04:30N 38°26' W 009°07'0 0.0
2017-Dec-04 04:00N 38°26' W 009°07'  
Track history (hours):
 
Tides and Currents Weather Stations Pressure Air Temp Water Temp Dewpoint Dewpoint Depression Visibility Wind Speed Wind Dir Waves Ship Positions

Luis Adriao

Last reported at 2017-Dec-11 09:59 UTC. Time now 2017-Dec-13 17:05 UTC.
Position N 38°26' W 009°07'.

Length 22 m.

Type: Fishing. MMSI: 263500262.

Date/timePositionNaut miles runAvg speedWind from/ knotsBaromVisibWave heightAir tempDewpointWater temp
2017-Dec-11 09:59N 38°26' W 009°07'  
2017-Dec-07 11:11N 38°26' W 009°07'0 0.0
2017-Dec-07 11:00N 38°26' W 009°07'2 4.1
2017-Dec-07 10:30N 38°26' W 009°04'3 6.9
2017-Dec-07 10:00N 38°25' W 009°00'4 8.5
2017-Dec-07 09:31N 38°24' W 008°55'8 4.2
2017-Dec-07 07:38N 38°17' W 008°50'1 8.6
2017-Dec-07 07:30N 38°18' W 008°51'1 2.0
2017-Dec-07 07:00N 38°19' W 008°51'3 6.8
2017-Dec-07 06:31N 38°20' W 008°54'5 8.9
2017-Dec-07 06:00N 38°23' W 008°59'4 8.9
2017-Dec-07 05:30N 38°25' W 009°04'3 5.1
2017-Dec-07 05:01N 38°26' W 009°07'  
2017-Dec-04 10:14N 38°20' W 008°51'0 0.3
2017-Dec-04 10:00N 38°21' W 008°51'0 0.3
2017-Dec-04 09:29N 38°21' W 008°51'0 0.3
2017-Dec-04 09:00N 38°21' W 008°51'0 0.3
2017-Dec-04 08:26N 38°21' W 008°50'0 0.3
2017-Dec-04 08:00N 38°20' W 008°50'0 0.3
2017-Dec-04 07:30N 38°20' W 008°50'0 0.7
2017-Dec-04 07:00N 38°21' W 008°50'0 0.9
2017-Dec-04 06:30N 38°21' W 008°51'3 6.3
2017-Dec-04 06:00N 38°23' W 008°53'4 7.4
2017-Dec-04 05:31N 38°25' W 008°57'4 7.8
2017-Dec-04 05:00N 38°26' W 009°02'4 7.0
2017-Dec-04 04:30N 38°26' W 009°07'0 0.0
2017-Dec-04 04:00N 38°26' W 009°07'  

Dump ship's entire track history